GVQ weather

Genesee County Airport
Batavia, New York, United States

Public forecast

Using degrees Fahrenheit for public forecast. Weather courtesy of forecast.io.

Closest aviation weather report (METAR) to Genesee County Airport

Closest report is Greater Rochester International Airport, 22.3 nm (41.4 km) ENE. Retrieved 2019/12/16 06:54 UTC (11 minutes ago):

KROC 160654Z 23005KT 10SM BKN050 OVC070 M04/M09 A3020 RMK AO2 SLP236 BINOVC T10441089

Closest aviation forecast (TAF) to Genesee County Airport

Closest forecast is Greater Rochester International Airport, 22.3 nm (41.4 km) ENE. Retrieved 2019/12/16 06:24 UTC (41 minutes ago):

TAF KROC 160521Z 1606/1706 24005KT P6SM FEW035 SCT150 FM161200 19004KT P6SM BKN080 FM162000 VRB03KT P6SM BKN150 FM170500 00000KT P6SM OVC120